sensor_id;sensor_type;location;lat;lon;timestamp;P1;durP1;ratioP1;P2;durP2;ratioP2
55641;SDS011;41509;53.108;6.100;2023-03-03T00:01:18;16.53;;;5.23;;
55641;SDS011;41509;53.108;6.100;2023-03-03T00:03:44;16.95;;;5.43;;
55641;SDS011;41509;53.108;6.100;2023-03-03T00:06:11;19.80;;;5.90;;
55641;SDS011;41509;53.108;6.100;2023-03-03T00:08:39;21.50;;;6.45;;
55641;SDS011;41509;53.108;6.100;2023-03-03T00:11:05;14.57;;;5.97;;
55641;SDS011;41509;53.108;6.100;2023-03-03T00:16:13;16.25;;;5.05;;
55641;SDS011;41509;53.108;6.100;2023-03-03T00:18:42;18.80;;;5.53;;
55641;SDS011;41509;53.108;6.100;2023-03-03T00:24:16;18.05;;;5.57;;
55641;SDS011;41509;53.108;6.100;2023-03-03T00:26:48;16.17;;;4.93;;
55641;SDS011;41509;53.108;6.100;2023-03-03T00:34:28;17.35;;;4.38;;
55641;SDS011;41509;53.108;6.100;2023-03-03T00:39:29;26.67;;;5.03;;
55641;SDS011;41509;53.108;6.100;2023-03-03T00:41:59;21.75;;;4.72;;
55641;SDS011;41509;53.108;6.100;2023-03-03T00:47:29;28.45;;;4.85;;
55641;SDS011;41509;53.108;6.100;2023-03-03T00:52:39;20.73;;;3.88;;
55641;SDS011;41509;53.108;6.100;2023-03-03T00:55:09;17.90;;;4.80;;
55641;SDS011;41509;53.108;6.100;2023-03-03T01:00:01;23.63;;;4.80;;
55641;SDS011;41509;53.108;6.100;2023-03-03T01:02:28;19.40;;;4.25;;
55641;SDS011;41509;53.108;6.100;2023-03-03T01:04:54;13.20;;;4.75;;
55641;SDS011;41509;53.108;6.100;2023-03-03T01:07:20;20.35;;;4.28;;
55641;SDS011;41509;53.108;6.100;2023-03-03T01:09:46;14.35;;;3.90;;
55641;SDS011;41509;53.108;6.100;2023-03-03T01:12:11;11.63;;;4.47;;
55641;SDS011;41509;53.108;6.100;2023-03-03T01:14:37;21.70;;;4.20;;
55641;SDS011;41509;53.108;6.100;2023-03-03T01:17:04;14.88;;;4.22;;
55641;SDS011;41509;53.108;6.100;2023-03-03T01:19:29;10.67;;;4.37;;
55641;SDS011;41509;53.108;6.100;2023-03-03T01:21:55;18.97;;;4.33;;
55641;SDS011;41509;53.108;6.100;2023-03-03T01:24:21;12.73;;;4.33;;
55641;SDS011;41509;53.108;6.100;2023-03-03T01:26:46;7.97;;;4.03;;
55641;SDS011;41509;53.108;6.100;2023-03-03T01:29:12;10.93;;;4.40;;
55641;SDS011;41509;53.108;6.100;2023-03-03T01:31:38;15.33;;;4.50;;
55641;SDS011;41509;53.108;6.100;2023-03-03T01:34:04;16.10;;;5.18;;
55641;SDS011;41509;53.108;6.100;2023-03-03T01:36:31;13.77;;;5.50;;
55641;SDS011;41509;53.108;6.100;2023-03-03T01:41:26;15.70;;;6.93;;
55641;SDS011;41509;53.108;6.100;2023-03-03T01:43:54;17.92;;;6.22;;
55641;SDS011;41509;53.108;6.100;2023-03-03T01:48:49;14.23;;;5.70;;
55641;SDS011;41509;53.108;6.100;2023-03-03T01:53:57;17.80;;;4.90;;
55641;SDS011;41509;53.108;6.100;2023-03-03T01:56:25;10.27;;;5.07;;
55641;SDS011;41509;53.108;6.100;2023-03-03T01:58:53;13.55;;;5.15;;
55641;SDS011;41509;53.108;6.100;2023-03-03T02:01:25;9.77;;;5.07;;
55641;SDS011;41509;53.108;6.100;2023-03-03T02:03:52;9.85;;;4.55;;
55641;SDS011;41509;53.108;6.100;2023-03-03T02:06:19;10.85;;;4.80;;
55641;SDS011;41509;53.108;6.100;2023-03-03T02:08:50;11.60;;;4.85;;
55641;SDS011;41509;53.108;6.100;2023-03-03T02:11:32;8.93;;;4.15;;
55641;SDS011;41509;53.108;6.100;2023-03-03T02:14:01;6.65;;;3.92;;
55641;SDS011;41509;53.108;6.100;2023-03-03T02:16:27;6.93;;;3.53;;
55641;SDS011;41509;53.108;6.100;2023-03-03T02:18:53;7.82;;;3.60;;
55641;SDS011;41509;53.108;6.100;2023-03-03T02:21:20;6.50;;;3.77;;
55641;SDS011;41509;53.108;6.100;2023-03-03T02:23:49;6.78;;;4.03;;
55641;SDS011;41509;53.108;6.100;2023-03-03T02:26:23;8.50;;;4.07;;
55641;SDS011;41509;53.108;6.100;2023-03-03T02:28:50;6.22;;;3.72;;
55641;SDS011;41509;53.108;6.100;2023-03-03T02:31:18;7.87;;;3.87;;
55641;SDS011;41509;53.108;6.100;2023-03-03T02:33:47;6.63;;;3.63;;
55641;SDS011;41509;53.108;6.100;2023-03-03T02:36:16;6.18;;;3.30;;
55641;SDS011;41509;53.108;6.100;2023-03-03T02:44:04;7.20;;;4.03;;
55641;SDS011;41509;53.108;6.100;2023-03-03T02:46:36;7.57;;;3.47;;
55641;SDS011;41509;53.108;6.100;2023-03-03T02:49:04;6.63;;;3.72;;
55641;SDS011;41509;53.108;6.100;2023-03-03T02:51:32;8.05;;;4.03;;
55641;SDS011;41509;53.108;6.100;2023-03-03T02:56:24;7.20;;;3.90;;
55641;SDS011;41509;53.108;6.100;2023-03-03T02:58:50;6.60;;;3.47;;
55641;SDS011;41509;53.108;6.100;2023-03-03T03:01:16;8.50;;;3.57;;
55641;SDS011;41509;53.108;6.100;2023-03-03T03:03:42;6.25;;;3.75;;
55641;SDS011;41509;53.108;6.100;2023-03-03T03:06:08;8.15;;;3.50;;
55641;SDS011;41509;53.108;6.100;2023-03-03T03:08:34;8.50;;;3.87;;
55641;SDS011;41509;53.108;6.100;2023-03-03T03:11:00;6.30;;;4.20;;
55641;SDS011;41509;53.108;6.100;2023-03-03T03:13:26;9.52;;;4.47;;
55641;SDS011;41509;53.108;6.100;2023-03-03T03:15:52;8.07;;;4.10;;
55641;SDS011;41509;53.108;6.100;2023-03-03T03:18:18;7.30;;;3.60;;
55641;SDS011;41509;53.108;6.100;2023-03-03T03:20:43;8.17;;;4.27;;
55641;SDS011;41509;53.108;6.100;2023-03-03T03:23:10;7.70;;;4.25;;
55641;SDS011;41509;53.108;6.100;2023-03-03T03:25:36;8.90;;;4.18;;
55641;SDS011;41509;53.108;6.100;2023-03-03T03:28:09;9.77;;;4.63;;
55641;SDS011;41509;53.108;6.100;2023-03-03T03:30:39;6.88;;;4.30;;
55641;SDS011;41509;53.108;6.100;2023-03-03T03:33:05;7.78;;;4.20;;
55641;SDS011;41509;53.108;6.100;2023-03-03T03:35:31;8.37;;;4.17;;
55641;SDS011;41509;53.108;6.100;2023-03-03T03:37:58;8.85;;;4.35;;
55641;SDS011;41509;53.108;6.100;2023-03-03T03:40:23;6.60;;;3.87;;
55641;SDS011;41509;53.108;6.100;2023-03-03T03:42:50;9.93;;;4.53;;
55641;SDS011;41509;53.108;6.100;2023-03-03T03:45:19;9.43;;;4.68;;
55641;SDS011;41509;53.108;6.100;2023-03-03T03:47:45;9.97;;;4.53;;
55641;SDS011;41509;53.108;6.100;2023-03-03T03:50:11;10.67;;;4.93;;
55641;SDS011;41509;53.108;6.100;2023-03-03T03:52:36;8.48;;;4.53;;
55641;SDS011;41509;53.108;6.100;2023-03-03T03:55:02;9.87;;;4.80;;
55641;SDS011;41509;53.108;6.100;2023-03-03T03:59:54;8.27;;;4.35;;
55641;SDS011;41509;53.108;6.100;2023-03-03T04:02:20;8.63;;;4.47;;
55641;SDS011;41509;53.108;6.100;2023-03-03T04:04:46;10.67;;;4.90;;
55641;SDS011;41509;53.108;6.100;2023-03-03T04:07:11;9.53;;;4.50;;
55641;SDS011;41509;53.108;6.100;2023-03-03T04:09:37;10.32;;;5.03;;
55641;SDS011;41509;53.108;6.100;2023-03-03T04:12:03;8.73;;;4.47;;
55641;SDS011;41509;53.108;6.100;2023-03-03T04:14:29;7.10;;;3.70;;
55641;SDS011;41509;53.108;6.100;2023-03-03T04:16:55;8.17;;;3.90;;
55641;SDS011;41509;53.108;6.100;2023-03-03T04:19:21;8.10;;;4.07;;
55641;SDS011;41509;53.108;6.100;2023-03-03T04:21:46;9.20;;;4.28;;
55641;SDS011;41509;53.108;6.100;2023-03-03T04:24:12;6.90;;;3.30;;
55641;SDS011;41509;53.108;6.100;2023-03-03T04:26:38;7.47;;;4.13;;
55641;SDS011;41509;53.108;6.100;2023-03-03T04:29:04;7.40;;;3.88;;
55641;SDS011;41509;53.108;6.100;2023-03-03T04:31:30;7.80;;;3.90;;
55641;SDS011;41509;53.108;6.100;2023-03-03T04:33:55;6.13;;;3.60;;
55641;SDS011;41509;53.108;6.100;2023-03-03T04:36:21;6.03;;;3.47;;
55641;SDS011;41509;53.108;6.100;2023-03-03T04:38:47;7.03;;;3.50;;
55641;SDS011;41509;53.108;6.100;2023-03-03T04:41:13;7.25;;;3.75;;
55641;SDS011;41509;53.108;6.100;2023-03-03T04:43:39;7.28;;;3.80;;
55641;SDS011;41509;53.108;6.100;2023-03-03T04:46:05;6.72;;;3.45;;
55641;SDS011;41509;53.108;6.100;2023-03-03T04:48:30;6.57;;;3.53;;
55641;SDS011;41509;53.108;6.100;2023-03-03T04:50:56;7.03;;;3.17;;
55641;SDS011;41509;53.108;6.100;2023-03-03T04:53:22;8.47;;;3.57;;
55641;SDS011;41509;53.108;6.100;2023-03-03T04:55:51;6.87;;;3.50;;
55641;SDS011;41509;53.108;6.100;2023-03-03T04:58:17;7.15;;;3.28;;
55641;SDS011;41509;53.108;6.100;2023-03-03T05:03:17;4.88;;;2.78;;
55641;SDS011;41509;53.108;6.100;2023-03-03T05:05:44;7.13;;;3.53;;
55641;SDS011;41509;53.108;6.100;2023-03-03T05:08:10;5.70;;;3.15;;
55641;SDS011;41509;53.108;6.100;2023-03-03T05:10:36;6.57;;;3.47;;
55641;SDS011;41509;53.108;6.100;2023-03-03T05:13:02;7.72;;;3.38;;
55641;SDS011;41509;53.108;6.100;2023-03-03T05:15:29;7.55;;;3.40;;
55641;SDS011;41509;53.108;6.100;2023-03-03T05:17:55;4.57;;;2.95;;
55641;SDS011;41509;53.108;6.100;2023-03-03T05:20:21;8.47;;;3.93;;
55641;SDS011;41509;53.108;6.100;2023-03-03T05:22:47;5.05;;;2.92;;
55641;SDS011;41509;53.108;6.100;2023-03-03T05:25:12;7.10;;;3.30;;
55641;SDS011;41509;53.108;6.100;2023-03-03T05:27:38;8.60;;;2.90;;
55641;SDS011;41509;53.108;6.100;2023-03-03T05:30:04;7.07;;;3.60;;
55641;SDS011;41509;53.108;6.100;2023-03-03T05:32:31;6.65;;;3.45;;
55641;SDS011;41509;53.108;6.100;2023-03-03T05:34:56;5.80;;;3.13;;
55641;SDS011;41509;53.108;6.100;2023-03-03T05:37:22;5.57;;;2.60;;
55641;SDS011;41509;53.108;6.100;2023-03-03T05:39:48;4.37;;;2.77;;
55641;SDS011;41509;53.108;6.100;2023-03-03T05:42:14;4.13;;;2.53;;
55641;SDS011;41509;53.108;6.100;2023-03-03T05:44:40;5.60;;;2.93;;
55641;SDS011;41509;53.108;6.100;2023-03-03T05:47:06;8.40;;;2.70;;
55641;SDS011;41509;53.108;6.100;2023-03-03T05:49:32;4.97;;;2.97;;
55641;SDS011;41509;53.108;6.100;2023-03-03T05:51:58;4.10;;;2.63;;
55641;SDS011;41509;53.108;6.100;2023-03-03T05:54:24;4.15;;;2.53;;
55641;SDS011;41509;53.108;6.100;2023-03-03T05:56:50;5.63;;;2.70;;
55641;SDS011;41509;53.108;6.100;2023-03-03T05:59:15;6.33;;;2.73;;
55641;SDS011;41509;53.108;6.100;2023-03-03T06:01:41;4.60;;;2.67;;
55641;SDS011;41509;53.108;6.100;2023-03-03T06:04:06;5.53;;;2.80;;
55641;SDS011;41509;53.108;6.100;2023-03-03T06:06:32;4.40;;;2.50;;
55641;SDS011;41509;53.108;6.100;2023-03-03T06:08:58;8.30;;;2.40;;
55641;SDS011;41509;53.108;6.100;2023-03-03T06:11:24;5.37;;;2.43;;
55641;SDS011;41509;53.108;6.100;2023-03-03T06:13:49;5.53;;;2.70;;
55641;SDS011;41509;53.108;6.100;2023-03-03T06:16:18;5.22;;;2.92;;
55641;SDS011;41509;53.108;6.100;2023-03-03T06:18:44;7.90;;;2.70;;
55641;SDS011;41509;53.108;6.100;2023-03-03T06:21:10;7.07;;;3.50;;
55641;SDS011;41509;53.108;6.100;2023-03-03T06:23:35;5.57;;;2.80;;
55641;SDS011;41509;53.108;6.100;2023-03-03T06:26:01;5.10;;;2.87;;
55641;SDS011;41509;53.108;6.100;2023-03-03T06:28:27;4.97;;;2.77;;
55641;SDS011;41509;53.108;6.100;2023-03-03T06:30:53;5.37;;;2.50;;
55641;SDS011;41509;53.108;6.100;2023-03-03T06:33:19;8.73;;;2.95;;
55641;SDS011;41509;53.108;6.100;2023-03-03T06:35:48;5.10;;;2.70;;
55641;SDS011;41509;53.108;6.100;2023-03-03T06:38:17;6.40;;;2.78;;
55641;SDS011;41509;53.108;6.100;2023-03-03T06:40:44;4.65;;;2.60;;
55641;SDS011;41509;53.108;6.100;2023-03-03T06:43:10;4.32;;;2.30;;
55641;SDS011;41509;53.108;6.100;2023-03-03T06:45:35;7.10;;;2.83;;
55641;SDS011;41509;53.108;6.100;2023-03-03T06:48:01;5.33;;;2.63;;
55641;SDS011;41509;53.108;6.100;2023-03-03T06:50:28;7.65;;;2.95;;
55641;SDS011;41509;53.108;6.100;2023-03-03T06:55:35;5.10;;;2.70;;
55641;SDS011;41509;53.108;6.100;2023-03-03T06:58:00;4.87;;;2.53;;
55641;SDS011;41509;53.108;6.100;2023-03-03T07:00:27;6.70;;;3.80;;
55641;SDS011;41509;53.108;6.100;2023-03-03T07:02:56;4.77;;;2.63;;
55641;SDS011;41509;53.108;6.100;2023-03-03T07:05:29;5.97;;;2.60;;
55641;SDS011;41509;53.108;6.100;2023-03-03T07:07:55;5.30;;;3.47;;
55641;SDS011;41509;53.108;6.100;2023-03-03T07:10:22;13.82;;;4.38;;
55641;SDS011;41509;53.108;6.100;2023-03-03T07:12:50;12.23;;;5.68;;
55641;SDS011;41509;53.108;6.100;2023-03-03T07:15:20;9.93;;;4.30;;
55641;SDS011;41509;53.108;6.100;2023-03-03T07:17:49;9.65;;;4.18;;
55641;SDS011;41509;53.108;6.100;2023-03-03T07:20:23;7.70;;;4.25;;
55641;SDS011;41509;53.108;6.100;2023-03-03T07:22:53;9.98;;;4.25;;
55641;SDS011;41509;53.108;6.100;2023-03-03T07:25:28;7.00;;;3.93;;
55641;SDS011;41509;53.108;6.100;2023-03-03T07:28:00;7.85;;;3.90;;
55641;SDS011;41509;53.108;6.100;2023-03-03T07:30:37;7.07;;;4.00;;
55641;SDS011;41509;53.108;6.100;2023-03-03T07:33:04;5.50;;;3.50;;
55641;SDS011;41509;53.108;6.100;2023-03-03T07:35:38;8.10;;;4.40;;
55641;SDS011;41509;53.108;6.100;2023-03-03T07:38:49;9.20;;;5.00;;
55641;SDS011;41509;53.108;6.100;2023-03-03T07:40:59;17.23;;;6.80;;
55641;SDS011;41509;53.108;6.100;2023-03-03T07:43:37;9.27;;;5.05;;
55641;SDS011;41509;53.108;6.100;2023-03-03T07:49:27;8.52;;;3.42;;
55641;SDS011;41509;53.108;6.100;2023-03-03T07:51:59;6.80;;;3.03;;
55641;SDS011;41509;53.108;6.100;2023-03-03T07:59:41;12.93;;;5.13;;
55641;SDS011;41509;53.108;6.100;2023-03-03T08:02:29;7.13;;;4.35;;
55641;SDS011;41509;53.108;6.100;2023-03-03T08:04:55;8.00;;;3.80;;
55641;SDS011;41509;53.108;6.100;2023-03-03T08:07:22;7.10;;;3.63;;
55641;SDS011;41509;53.108;6.100;2023-03-03T08:17:45;4.72;;;1.95;;
55641;SDS011;41509;53.108;6.100;2023-03-03T08:22:59;5.13;;;2.10;;
55641;SDS011;41509;53.108;6.100;2023-03-03T08:25:25;3.60;;;1.97;;
55641;SDS011;41509;53.108;6.100;2023-03-03T08:27:50;5.57;;;1.93;;
55641;SDS011;41509;53.108;6.100;2023-03-03T08:30:16;13.93;;;2.30;;
55641;SDS011;41509;53.108;6.100;2023-03-03T08:32:42;3.70;;;1.83;;
55641;SDS011;41509;53.108;6.100;2023-03-03T08:35:08;3.50;;;1.60;;
55641;SDS011;41509;53.108;6.100;2023-03-03T08:37:33;4.07;;;2.28;;
55641;SDS011;41509;53.108;6.100;2023-03-03T08:39:59;5.00;;;1.90;;
55641;SDS011;41509;53.108;6.100;2023-03-03T08:42:25;4.73;;;1.90;;
55641;SDS011;41509;53.108;6.100;2023-03-03T08:44:50;6.27;;;1.70;;
55641;SDS011;41509;53.108;6.100;2023-03-03T08:47:16;3.67;;;2.07;;
55641;SDS011;41509;53.108;6.100;2023-03-03T08:49:41;6.40;;;2.70;;
55641;SDS011;41509;53.108;6.100;2023-03-03T08:52:07;4.67;;;2.03;;
55641;SDS011;41509;53.108;6.100;2023-03-03T08:54:33;7.77;;;2.13;;
55641;SDS011;41509;53.108;6.100;2023-03-03T08:56:58;3.27;;;1.80;;
55641;SDS011;41509;53.108;6.100;2023-03-03T08:59:24;4.10;;;1.77;;
55641;SDS011;41509;53.108;6.100;2023-03-03T09:01:50;7.60;;;2.23;;
55641;SDS011;41509;53.108;6.100;2023-03-03T09:04:15;6.30;;;1.60;;
55641;SDS011;41509;53.108;6.100;2023-03-03T09:06:41;3.67;;;1.77;;
55641;SDS011;41509;53.108;6.100;2023-03-03T09:09:07;6.97;;;1.43;;
55641;SDS011;41509;53.108;6.100;2023-03-03T09:11:32;4.97;;;1.40;;
55641;SDS011;41509;53.108;6.100;2023-03-03T09:14:01;4.27;;;1.20;;
55641;SDS011;41509;53.108;6.100;2023-03-03T09:16:38;2.65;;;1.05;;
55641;SDS011;41509;53.108;6.100;2023-03-03T09:21:55;4.80;;;1.10;;
55641;SDS011;41509;53.108;6.100;2023-03-03T09:24:40;4.60;;;1.90;;
55641;SDS011;41509;53.108;6.100;2023-03-03T09:27:11;3.13;;;1.33;;
55641;SDS011;41509;53.108;6.100;2023-03-03T09:29:43;1.70;;;1.10;;
55641;SDS011;41509;53.108;6.100;2023-03-03T09:32:20;2.40;;;0.95;;
55641;SDS011;41509;53.108;6.100;2023-03-03T09:34:55;3.70;;;1.00;;
55641;SDS011;41509;53.108;6.100;2023-03-03T09:37:22;1.90;;;0.83;;
55641;SDS011;41509;53.108;6.100;2023-03-03T09:39:54;3.00;;;1.10;;
55641;SDS011;41509;53.108;6.100;2023-03-03T09:45:10;3.40;;;0.98;;
55641;SDS011;41509;53.108;6.100;2023-03-03T09:47:52;3.00;;;0.85;;
55641;SDS011;41509;53.108;6.100;2023-03-03T09:53:35;1.38;;;0.60;;
55641;SDS011;41509;53.108;6.100;2023-03-03T09:58:59;4.82;;;0.80;;
55641;SDS011;41509;53.108;6.100;2023-03-03T10:09:17;1.00;;;0.40;;
55641;SDS011;41509;53.108;6.100;2023-03-03T10:12:19;2.03;;;0.40;;
55641;SDS011;41509;53.108;6.100;2023-03-03T10:15:15;7.68;;;1.02;;
55641;SDS011;41509;53.108;6.100;2023-03-03T10:32:15;4.05;;;0.65;;
55641;SDS011;41509;53.108;6.100;2023-03-03T10:48:04;1.90;;;0.32;;
55641;SDS011;41509;53.108;6.100;2023-03-03T10:53:18;1.20;;;0.40;;
55641;SDS011;41509;53.108;6.100;2023-03-03T11:01:55;0.57;;;0.25;;
55641;SDS011;41509;53.108;6.100;2023-03-03T11:12:53;2.25;;;0.57;;
55641;SDS011;41509;53.108;6.100;2023-03-03T11:18:36;0.65;;;0.30;;
55641;SDS011;41509;53.108;6.100;2023-03-03T11:21:18;0.75;;;0.35;;
55641;SDS011;41509;53.108;6.100;2023-03-03T11:32:00;2.47;;;0.50;;
55641;SDS011;41509;53.108;6.100;2023-03-03T11:39:48;1.42;;;0.95;;
55641;SDS011;41509;53.108;6.100;2023-03-03T11:45:01;4.45;;;0.50;;
55641;SDS011;41509;53.108;6.100;2023-03-03T11:47:39;0.45;;;0.40;;
55641;SDS011;41509;53.108;6.100;2023-03-03T11:50:15;2.47;;;0.55;;
55641;SDS011;41509;53.108;6.100;2023-03-03T12:03:43;2.40;;;0.75;;
55641;SDS011;41509;53.108;6.100;2023-03-03T12:09:00;5.22;;;0.70;;
55641;SDS011;41509;53.108;6.100;2023-03-03T12:14:07;1.10;;;0.40;;
55641;SDS011;41509;53.108;6.100;2023-03-03T12:24:50;7.82;;;0.70;;
55641;SDS011;41509;53.108;6.100;2023-03-03T12:30:14;4.60;;;0.68;;
55641;SDS011;41509;53.108;6.100;2023-03-03T12:38:19;2.72;;;0.75;;
55641;SDS011;41509;53.108;6.100;2023-03-03T12:46:18;5.40;;;1.10;;
55641;SDS011;41509;53.108;6.100;2023-03-03T12:54:22;2.60;;;0.60;;
55641;SDS011;41509;53.108;6.100;2023-03-03T12:57:08;7.55;;;0.85;;
55641;SDS011;41509;53.108;6.100;2023-03-03T13:09:10;4.15;;;1.70;;
55641;SDS011;41509;53.108;6.100;2023-03-03T13:11:56;4.05;;;0.85;;
55641;SDS011;41509;53.108;6.100;2023-03-03T13:22:45;8.93;;;1.43;;
55641;SDS011;41509;53.108;6.100;2023-03-03T13:31:28;4.18;;;1.15;;
55641;SDS011;41509;53.108;6.100;2023-03-03T13:34:01;4.53;;;1.10;;
55641;SDS011;41509;53.108;6.100;2023-03-03T13:36:33;6.55;;;2.15;;
55641;SDS011;41509;53.108;6.100;2023-03-03T13:42:09;9.32;;;1.50;;
55641;SDS011;41509;53.108;6.100;2023-03-03T13:44:46;10.80;;;4.25;;
55641;SDS011;41509;53.108;6.100;2023-03-03T13:47:22;5.63;;;2.15;;
55641;SDS011;41509;53.108;6.100;2023-03-03T13:52:30;9.05;;;1.75;;
55641;SDS011;41509;53.108;6.100;2023-03-03T14:06:22;14.75;;;2.15;;
55641;SDS011;41509;53.108;6.100;2023-03-03T14:12:20;10.10;;;1.90;;
55641;SDS011;41509;53.108;6.100;2023-03-03T14:14:56;5.93;;;1.45;;
55641;SDS011;41509;53.108;6.100;2023-03-03T14:20:21;8.15;;;2.20;;
55641;SDS011;41509;53.108;6.100;2023-03-03T14:23:12;6.63;;;1.48;;
55641;SDS011;41509;53.108;6.100;2023-03-03T14:28:36;10.30;;;1.35;;
55641;SDS011;41509;53.108;6.100;2023-03-03T14:31:18;13.75;;;2.30;;
55641;SDS011;41509;53.108;6.100;2023-03-03T14:36:51;10.35;;;2.08;;
55641;SDS011;41509;53.108;6.100;2023-03-03T14:39:38;18.15;;;2.60;;
55641;SDS011;41509;53.108;6.100;2023-03-03T14:42:10;10.73;;;2.17;;
55641;SDS011;41509;53.108;6.100;2023-03-03T14:49:46;9.32;;;1.63;;
55641;SDS011;41509;53.108;6.100;2023-03-03T14:54:41;10.57;;;1.88;;
55641;SDS011;41509;53.108;6.100;2023-03-03T14:57:17;8.85;;;1.80;;
55641;SDS011;41509;53.108;6.100;2023-03-03T15:00:01;8.68;;;1.55;;
55641;SDS011;41509;53.108;6.100;2023-03-03T15:07:50;11.90;;;2.20;;
55641;SDS011;41509;53.108;6.100;2023-03-03T15:12:52;11.05;;;1.85;;
55641;SDS011;41509;53.108;6.100;2023-03-03T15:15:19;10.93;;;1.83;;
55641;SDS011;41509;53.108;6.100;2023-03-03T15:25:51;12.32;;;1.83;;
55641;SDS011;41509;53.108;6.100;2023-03-03T15:28:30;5.70;;;1.42;;
55641;SDS011;41509;53.108;6.100;2023-03-03T15:36:29;10.23;;;1.90;;
55641;SDS011;41509;53.108;6.100;2023-03-03T15:39:11;6.28;;;1.98;;
55641;SDS011;41509;53.108;6.100;2023-03-03T15:41:44;15.85;;;1.58;;
55641;SDS011;41509;53.108;6.100;2023-03-03T15:44:21;11.75;;;1.52;;
55641;SDS011;41509;53.108;6.100;2023-03-03T15:59:17;13.10;;;2.55;;
55641;SDS011;41509;53.108;6.100;2023-03-03T16:01:33;16.58;;;2.00;;
55641;SDS011;41509;53.108;6.100;2023-03-03T16:04:15;9.90;;;1.73;;
55641;SDS011;41509;53.108;6.100;2023-03-03T16:06:52;8.15;;;2.00;;
55641;SDS011;41509;53.108;6.100;2023-03-03T16:12:30;8.38;;;2.22;;
55641;SDS011;41509;53.108;6.100;2023-03-03T16:15:19;14.85;;;2.05;;
55641;SDS011;41509;53.108;6.100;2023-03-03T16:23:50;5.47;;;1.65;;
55641;SDS011;41509;53.108;6.100;2023-03-03T16:26:33;12.65;;;2.28;;
55641;SDS011;41509;53.108;6.100;2023-03-03T16:31:52;8.23;;;1.92;;
55641;SDS011;41509;53.108;6.100;2023-03-03T16:35:00;16.77;;;2.22;;
55641;SDS011;41509;53.108;6.100;2023-03-03T16:37:39;16.52;;;2.35;;
55641;SDS011;41509;53.108;6.100;2023-03-03T16:40:44;17.35;;;4.10;;
55641;SDS011;41509;53.108;6.100;2023-03-03T16:43:32;15.02;;;3.28;;
55641;SDS011;41509;53.108;6.100;2023-03-03T16:46:27;13.85;;;3.00;;
55641;SDS011;41509;53.108;6.100;2023-03-03T16:51:52;12.52;;;1.90;;
55641;SDS011;41509;53.108;6.100;2023-03-03T17:00:08;10.10;;;1.75;;
55641;SDS011;41509;53.108;6.100;2023-03-03T17:05:22;19.00;;;3.47;;
55641;SDS011;41509;53.108;6.100;2023-03-03T17:30:28;9.02;;;1.80;;
55641;SDS011;41509;53.108;6.100;2023-03-03T17:41:20;16.42;;;3.22;;
55641;SDS011;41509;53.108;6.100;2023-03-03T17:46:49;12.15;;;2.33;;
55641;SDS011;41509;53.108;6.100;2023-03-03T17:49:35;12.02;;;2.83;;
55641;SDS011;41509;53.108;6.100;2023-03-03T17:52:20;14.60;;;2.65;;
55641;SDS011;41509;53.108;6.100;2023-03-03T17:58:24;17.65;;;3.92;;
55641;SDS011;41509;53.108;6.100;2023-03-03T18:06:10;13.23;;;2.67;;
55641;SDS011;41509;53.108;6.100;2023-03-03T18:22:52;11.18;;;2.22;;
55641;SDS011;41509;53.108;6.100;2023-03-03T18:25:24;14.60;;;2.78;;
55641;SDS011;41509;53.108;6.100;2023-03-03T18:28:20;18.48;;;3.22;;
55641;SDS011;41509;53.108;6.100;2023-03-03T18:30:59;15.10;;;3.25;;
55641;SDS011;41509;53.108;6.100;2023-03-03T18:38:53;20.00;;;2.83;;
55641;SDS011;41509;53.108;6.100;2023-03-03T18:41:25;15.13;;;2.92;;
55641;SDS011;41509;53.108;6.100;2023-03-03T18:43:53;18.77;;;3.15;;
55641;SDS011;41509;53.108;6.100;2023-03-03T18:48:50;17.20;;;2.90;;
55641;SDS011;41509;53.108;6.100;2023-03-03T18:57:03;11.32;;;3.25;;
55641;SDS011;41509;53.108;6.100;2023-03-03T18:59:47;16.63;;;2.47;;
55641;SDS011;41509;53.108;6.100;2023-03-03T19:02:19;15.73;;;3.45;;
55641;SDS011;41509;53.108;6.100;2023-03-03T19:12:53;19.03;;;2.00;;
55641;SDS011;41509;53.108;6.100;2023-03-03T19:17:56;13.02;;;2.60;;
55641;SDS011;41509;53.108;6.100;2023-03-03T19:20:36;13.00;;;2.10;;
55641;SDS011;41509;53.108;6.100;2023-03-03T19:23:05;12.95;;;2.58;;
55641;SDS011;41509;53.108;6.100;2023-03-03T19:25:36;16.05;;;2.63;;
55641;SDS011;41509;53.108;6.100;2023-03-03T19:36:19;11.43;;;3.13;;
55641;SDS011;41509;53.108;6.100;2023-03-03T19:44:25;9.52;;;3.15;;
55641;SDS011;41509;53.108;6.100;2023-03-03T19:47:12;12.77;;;3.33;;
55641;SDS011;41509;53.108;6.100;2023-03-03T19:52:57;15.93;;;3.13;;
55641;SDS011;41509;53.108;6.100;2023-03-03T19:55:35;10.10;;;2.63;;
55641;SDS011;41509;53.108;6.100;2023-03-03T19:58:30;19.65;;;3.53;;
55641;SDS011;41509;53.108;6.100;2023-03-03T20:01:17;12.60;;;2.65;;
55641;SDS011;41509;53.108;6.100;2023-03-03T20:12:29;12.35;;;2.60;;
55641;SDS011;41509;53.108;6.100;2023-03-03T20:25:42;11.38;;;3.00;;
55641;SDS011;41509;53.108;6.100;2023-03-03T20:39:13;19.40;;;3.97;;
55641;SDS011;41509;53.108;6.100;2023-03-03T20:47:35;9.68;;;2.08;;
55641;SDS011;41509;53.108;6.100;2023-03-03T20:51:04;14.23;;;3.13;;
55641;SDS011;41509;53.108;6.100;2023-03-03T20:56:52;8.10;;;2.45;;
55641;SDS011;41509;53.108;6.100;2023-03-03T21:04:44;8.65;;;2.17;;
55641;SDS011;41509;53.108;6.100;2023-03-03T21:07:21;6.80;;;2.05;;
55641;SDS011;41509;53.108;6.100;2023-03-03T21:09:48;8.60;;;1.23;;
55641;SDS011;41509;53.108;6.100;2023-03-03T21:12:27;14.87;;;2.17;;
55641;SDS011;41509;53.108;6.100;2023-03-03T21:15:02;15.13;;;2.38;;
55641;SDS011;41509;53.108;6.100;2023-03-03T21:17:31;10.43;;;2.00;;
55641;SDS011;41509;53.108;6.100;2023-03-03T21:20:16;5.60;;;1.88;;
55641;SDS011;41509;53.108;6.100;2023-03-03T21:22:50;14.00;;;1.80;;
55641;SDS011;41509;53.108;6.100;2023-03-03T21:28:11;7.45;;;1.90;;
55641;SDS011;41509;53.108;6.100;2023-03-03T21:33:47;13.10;;;2.47;;
55641;SDS011;41509;53.108;6.100;2023-03-03T21:36:43;10.93;;;2.08;;
55641;SDS011;41509;53.108;6.100;2023-03-03T21:41:54;4.85;;;2.05;;
55641;SDS011;41509;53.108;6.100;2023-03-03T21:44:44;8.48;;;2.00;;
55641;SDS011;41509;53.108;6.100;2023-03-03T21:47:14;9.32;;;1.88;;
55641;SDS011;41509;53.108;6.100;2023-03-03T21:49:45;17.20;;;2.45;;
55641;SDS011;41509;53.108;6.100;2023-03-03T21:52:13;6.05;;;1.50;;
55641;SDS011;41509;53.108;6.100;2023-03-03T21:54:40;7.80;;;1.27;;
55641;SDS011;41509;53.108;6.100;2023-03-03T21:57:07;8.77;;;1.55;;
55641;SDS011;41509;53.108;6.100;2023-03-03T21:59:33;6.63;;;1.63;;
55641;SDS011;41509;53.108;6.100;2023-03-03T22:01:59;11.73;;;1.63;;
55641;SDS011;41509;53.108;6.100;2023-03-03T22:04:25;15.80;;;2.23;;
55641;SDS011;41509;53.108;6.100;2023-03-03T22:06:50;10.70;;;1.50;;
55641;SDS011;41509;53.108;6.100;2023-03-03T22:09:16;16.25;;;1.90;;
55641;SDS011;41509;53.108;6.100;2023-03-03T22:11:43;6.53;;;1.40;;
55641;SDS011;41509;53.108;6.100;2023-03-03T22:14:09;10.70;;;1.47;;
55641;SDS011;41509;53.108;6.100;2023-03-03T22:16:34;7.88;;;1.80;;
55641;SDS011;41509;53.108;6.100;2023-03-03T22:19:00;10.90;;;2.20;;
55641;SDS011;41509;53.108;6.100;2023-03-03T22:21:27;6.07;;;1.15;;
55641;SDS011;41509;53.108;6.100;2023-03-03T22:23:53;6.93;;;1.90;;
55641;SDS011;41509;53.108;6.100;2023-03-03T22:26:19;10.45;;;1.88;;
55641;SDS011;41509;53.108;6.100;2023-03-03T22:28:46;12.52;;;3.35;;
55641;SDS011;41509;53.108;6.100;2023-03-03T22:31:13;9.80;;;2.05;;
55641;SDS011;41509;53.108;6.100;2023-03-03T22:33:39;12.77;;;2.75;;
55641;SDS011;41509;53.108;6.100;2023-03-03T22:36:05;9.27;;;1.27;;
55641;SDS011;41509;53.108;6.100;2023-03-03T22:38:32;10.65;;;2.22;;
55641;SDS011;41509;53.108;6.100;2023-03-03T22:40:58;8.68;;;2.15;;
55641;SDS011;41509;53.108;6.100;2023-03-03T22:43:24;11.90;;;1.57;;